sensor_id;sensor_type;location;lat;lon;timestamp;P1;durP1;ratioP1;P2;durP2;ratioP2
25962;SDS011;13760;52.588;13.406;2022-07-12T00:02:16;5.70;;;1.98;;
25962;SDS011;13760;52.588;13.406;2022-07-12T00:04:42;3.97;;;2.05;;
25962;SDS011;13760;52.588;13.406;2022-07-12T00:07:07;5.07;;;1.92;;
25962;SDS011;13760;52.588;13.406;2022-07-12T00:09:33;3.65;;;1.95;;
25962;SDS011;13760;52.588;13.406;2022-07-12T00:11:58;5.53;;;1.90;;
25962;SDS011;13760;52.588;13.406;2022-07-12T00:14:24;4.45;;;2.17;;
25962;SDS011;13760;52.588;13.406;2022-07-12T00:16:50;4.70;;;1.83;;
25962;SDS011;13760;52.588;13.406;2022-07-12T00:19:16;5.32;;;1.75;;
25962;SDS011;13760;52.588;13.406;2022-07-12T00:21:42;4.00;;;1.70;;
25962;SDS011;13760;52.588;13.406;2022-07-12T00:24:08;3.22;;;1.50;;
25962;SDS011;13760;52.588;13.406;2022-07-12T00:26:34;3.20;;;1.90;;
25962;SDS011;13760;52.588;13.406;2022-07-12T00:28:59;5.03;;;1.73;;
25962;SDS011;13760;52.588;13.406;2022-07-12T00:31:25;4.68;;;1.80;;
25962;SDS011;13760;52.588;13.406;2022-07-12T00:33:50;3.97;;;1.83;;
25962;SDS011;13760;52.588;13.406;2022-07-12T00:36:17;4.13;;;1.67;;
25962;SDS011;13760;52.588;13.406;2022-07-12T00:38:42;4.75;;;1.65;;
25962;SDS011;13760;52.588;13.406;2022-07-12T00:41:08;5.70;;;1.70;;
25962;SDS011;13760;52.588;13.406;2022-07-12T00:43:33;6.53;;;2.10;;
25962;SDS011;13760;52.588;13.406;2022-07-12T00:45:59;4.38;;;1.60;;
25962;SDS011;13760;52.588;13.406;2022-07-12T00:48:24;2.47;;;1.45;;
25962;SDS011;13760;52.588;13.406;2022-07-12T00:50:50;3.78;;;1.70;;
25962;SDS011;13760;52.588;13.406;2022-07-12T00:53:16;3.22;;;1.70;;
25962;SDS011;13760;52.588;13.406;2022-07-12T00:55:44;3.50;;;1.77;;
25962;SDS011;13760;52.588;13.406;2022-07-12T00:58:09;3.15;;;1.80;;
25962;SDS011;13760;52.588;13.406;2022-07-12T01:00:35;4.90;;;1.90;;
25962;SDS011;13760;52.588;13.406;2022-07-12T01:03:03;3.90;;;1.55;;
25962;SDS011;13760;52.588;13.406;2022-07-12T01:05:29;5.68;;;1.80;;
25962;SDS011;13760;52.588;13.406;2022-07-12T01:07:55;4.10;;;1.70;;
25962;SDS011;13760;52.588;13.406;2022-07-12T01:10:22;5.25;;;1.73;;
25962;SDS011;13760;52.588;13.406;2022-07-12T01:12:48;4.47;;;1.70;;
25962;SDS011;13760;52.588;13.406;2022-07-12T01:15:15;4.90;;;1.77;;
25962;SDS011;13760;52.588;13.406;2022-07-12T01:17:44;2.47;;;1.70;;
25962;SDS011;13760;52.588;13.406;2022-07-12T01:20:10;4.40;;;2.00;;
25962;SDS011;13760;52.588;13.406;2022-07-12T01:22:39;3.55;;;1.80;;
25962;SDS011;13760;52.588;13.406;2022-07-12T01:25:06;4.28;;;1.77;;
25962;SDS011;13760;52.588;13.406;2022-07-12T01:27:32;4.07;;;2.03;;
25962;SDS011;13760;52.588;13.406;2022-07-12T01:30:00;5.32;;;1.80;;
25962;SDS011;13760;52.588;13.406;2022-07-12T01:32:27;4.53;;;1.73;;
25962;SDS011;13760;52.588;13.406;2022-07-12T01:34:59;4.63;;;1.63;;
25962;SDS011;13760;52.588;13.406;2022-07-12T01:37:29;5.03;;;1.88;;
25962;SDS011;13760;52.588;13.406;2022-07-12T01:39:58;7.47;;;1.90;;
25962;SDS011;13760;52.588;13.406;2022-07-12T01:42:25;3.63;;;1.90;;
25962;SDS011;13760;52.588;13.406;2022-07-12T01:44:52;3.00;;;1.88;;
25962;SDS011;13760;52.588;13.406;2022-07-12T01:47:24;4.10;;;1.70;;
25962;SDS011;13760;52.588;13.406;2022-07-12T01:49:51;3.80;;;1.77;;
25962;SDS011;13760;52.588;13.406;2022-07-12T01:52:16;3.35;;;1.73;;
25962;SDS011;13760;52.588;13.406;2022-07-12T01:54:43;3.88;;;2.03;;
25962;SDS011;13760;52.588;13.406;2022-07-12T01:57:09;2.30;;;1.52;;
25962;SDS011;13760;52.588;13.406;2022-07-12T01:59:35;4.53;;;2.10;;
25962;SDS011;13760;52.588;13.406;2022-07-12T02:02:01;6.53;;;2.00;;
25962;SDS011;13760;52.588;13.406;2022-07-12T02:04:28;6.20;;;1.90;;
25962;SDS011;13760;52.588;13.406;2022-07-12T02:06:54;3.95;;;2.15;;
25962;SDS011;13760;52.588;13.406;2022-07-12T02:09:21;3.95;;;2.15;;
25962;SDS011;13760;52.588;13.406;2022-07-12T02:11:46;4.05;;;1.90;;
25962;SDS011;13760;52.588;13.406;2022-07-12T02:14:13;2.70;;;1.73;;
25962;SDS011;13760;52.588;13.406;2022-07-12T02:16:39;3.70;;;2.20;;
25962;SDS011;13760;52.588;13.406;2022-07-12T02:19:05;3.38;;;1.73;;
25962;SDS011;13760;52.588;13.406;2022-07-12T02:21:31;4.57;;;2.10;;
25962;SDS011;13760;52.588;13.406;2022-07-12T02:23:57;3.90;;;2.00;;
25962;SDS011;13760;52.588;13.406;2022-07-12T02:26:22;5.28;;;1.88;;
25962;SDS011;13760;52.588;13.406;2022-07-12T02:28:48;4.75;;;2.00;;
25962;SDS011;13760;52.588;13.406;2022-07-12T02:31:14;2.70;;;1.90;;
25962;SDS011;13760;52.588;13.406;2022-07-12T02:33:40;5.05;;;1.98;;
25962;SDS011;13760;52.588;13.406;2022-07-12T02:36:06;2.72;;;2.05;;
25962;SDS011;13760;52.588;13.406;2022-07-12T02:38:32;4.40;;;1.90;;
25962;SDS011;13760;52.588;13.406;2022-07-12T02:40:57;3.53;;;2.22;;
25962;SDS011;13760;52.588;13.406;2022-07-12T02:43:24;6.45;;;2.42;;
25962;SDS011;13760;52.588;13.406;2022-07-12T02:45:51;4.93;;;2.00;;
25962;SDS011;13760;52.588;13.406;2022-07-12T02:48:17;5.35;;;2.00;;
25962;SDS011;13760;52.588;13.406;2022-07-12T02:50:43;4.43;;;2.05;;
25962;SDS011;13760;52.588;13.406;2022-07-12T02:53:12;5.50;;;2.10;;
25962;SDS011;13760;52.588;13.406;2022-07-12T02:55:38;4.53;;;2.22;;
25962;SDS011;13760;52.588;13.406;2022-07-12T02:58:04;4.78;;;2.10;;
25962;SDS011;13760;52.588;13.406;2022-07-12T03:00:33;6.47;;;2.10;;
25962;SDS011;13760;52.588;13.406;2022-07-12T03:03:00;3.78;;;2.50;;
25962;SDS011;13760;52.588;13.406;2022-07-12T03:05:26;2.80;;;2.17;;
25962;SDS011;13760;52.588;13.406;2022-07-12T03:07:51;4.90;;;2.45;;
25962;SDS011;13760;52.588;13.406;2022-07-12T03:10:17;4.30;;;2.13;;
25962;SDS011;13760;52.588;13.406;2022-07-12T03:12:43;5.38;;;2.65;;
25962;SDS011;13760;52.588;13.406;2022-07-12T03:15:09;5.22;;;2.10;;
25962;SDS011;13760;52.588;13.406;2022-07-12T03:17:34;7.68;;;2.58;;
25962;SDS011;13760;52.588;13.406;2022-07-12T03:20:01;6.57;;;2.58;;
25962;SDS011;13760;52.588;13.406;2022-07-12T03:22:29;4.32;;;2.13;;
25962;SDS011;13760;52.588;13.406;2022-07-12T03:24:54;3.05;;;1.98;;
25962;SDS011;13760;52.588;13.406;2022-07-12T03:27:20;8.38;;;2.15;;
25962;SDS011;13760;52.588;13.406;2022-07-12T03:29:45;5.57;;;2.40;;
25962;SDS011;13760;52.588;13.406;2022-07-12T03:32:11;4.47;;;2.20;;
25962;SDS011;13760;52.588;13.406;2022-07-12T03:34:37;10.23;;;2.50;;
25962;SDS011;13760;52.588;13.406;2022-07-12T03:37:03;5.80;;;2.05;;
25962;SDS011;13760;52.588;13.406;2022-07-12T03:39:29;4.25;;;2.08;;
25962;SDS011;13760;52.588;13.406;2022-07-12T03:41:54;3.33;;;2.15;;
25962;SDS011;13760;52.588;13.406;2022-07-12T03:44:20;6.28;;;2.50;;
25962;SDS011;13760;52.588;13.406;2022-07-12T03:46:48;5.38;;;2.28;;
25962;SDS011;13760;52.588;13.406;2022-07-12T03:49:14;7.38;;;2.47;;
25962;SDS011;13760;52.588;13.406;2022-07-12T03:51:39;5.20;;;2.08;;
25962;SDS011;13760;52.588;13.406;2022-07-12T03:54:06;4.07;;;2.22;;
25962;SDS011;13760;52.588;13.406;2022-07-12T03:56:35;6.65;;;2.33;;
25962;SDS011;13760;52.588;13.406;2022-07-12T03:59:19;4.13;;;1.90;;
25962;SDS011;13760;52.588;13.406;2022-07-12T04:01:45;4.15;;;1.83;;
25962;SDS011;13760;52.588;13.406;2022-07-12T04:04:11;4.68;;;1.85;;
25962;SDS011;13760;52.588;13.406;2022-07-12T04:06:36;3.65;;;1.77;;
25962;SDS011;13760;52.588;13.406;2022-07-12T04:09:03;3.97;;;1.80;;
25962;SDS011;13760;52.588;13.406;2022-07-12T04:11:32;2.72;;;1.80;;
25962;SDS011;13760;52.588;13.406;2022-07-12T04:13:58;8.23;;;2.42;;
25962;SDS011;13760;52.588;13.406;2022-07-12T04:16:25;5.65;;;1.83;;
25962;SDS011;13760;52.588;13.406;2022-07-12T04:18:51;6.30;;;1.90;;
25962;SDS011;13760;52.588;13.406;2022-07-12T04:21:17;7.28;;;2.17;;
25962;SDS011;13760;52.588;13.406;2022-07-12T04:23:42;4.32;;;1.90;;
25962;SDS011;13760;52.588;13.406;2022-07-12T04:26:08;6.30;;;2.05;;
25962;SDS011;13760;52.588;13.406;2022-07-12T04:28:37;2.80;;;1.67;;
25962;SDS011;13760;52.588;13.406;2022-07-12T04:31:02;3.70;;;1.88;;
25962;SDS011;13760;52.588;13.406;2022-07-12T04:33:28;4.40;;;1.98;;
25962;SDS011;13760;52.588;13.406;2022-07-12T04:35:54;5.57;;;1.73;;
25962;SDS011;13760;52.588;13.406;2022-07-12T04:38:19;3.97;;;1.45;;
25962;SDS011;13760;52.588;13.406;2022-07-12T04:40:45;5.90;;;1.65;;
25962;SDS011;13760;52.588;13.406;2022-07-12T04:43:11;4.88;;;1.63;;
25962;SDS011;13760;52.588;13.406;2022-07-12T04:45:37;2.20;;;1.40;;
25962;SDS011;13760;52.588;13.406;2022-07-12T04:48:02;4.00;;;1.70;;
25962;SDS011;13760;52.588;13.406;2022-07-12T04:50:28;6.07;;;1.30;;
25962;SDS011;13760;52.588;13.406;2022-07-12T04:52:54;6.05;;;1.63;;
25962;SDS011;13760;52.588;13.406;2022-07-12T04:55:19;4.18;;;1.27;;
25962;SDS011;13760;52.588;13.406;2022-07-12T04:57:45;2.15;;;1.30;;
25962;SDS011;13760;52.588;13.406;2022-07-12T05:00:11;3.58;;;1.40;;
25962;SDS011;13760;52.588;13.406;2022-07-12T05:02:37;4.97;;;1.63;;
25962;SDS011;13760;52.588;13.406;2022-07-12T05:05:02;2.78;;;1.20;;
25962;SDS011;13760;52.588;13.406;2022-07-12T05:07:28;3.45;;;1.40;;
25962;SDS011;13760;52.588;13.406;2022-07-12T05:09:54;3.90;;;1.38;;
25962;SDS011;13760;52.588;13.406;2022-07-12T05:12:19;4.78;;;1.70;;
25962;SDS011;13760;52.588;13.406;2022-07-12T05:14:45;2.95;;;1.15;;
25962;SDS011;13760;52.588;13.406;2022-07-12T05:17:11;4.60;;;1.17;;
25962;SDS011;13760;52.588;13.406;2022-07-12T05:19:39;3.47;;;1.38;;
25962;SDS011;13760;52.588;13.406;2022-07-12T05:22:08;3.83;;;1.20;;
25962;SDS011;13760;52.588;13.406;2022-07-12T05:24:34;4.25;;;1.30;;
25962;SDS011;13760;52.588;13.406;2022-07-12T05:26:59;10.40;;;1.40;;
25962;SDS011;13760;52.588;13.406;2022-07-12T05:29:29;5.15;;;1.20;;
25962;SDS011;13760;52.588;13.406;2022-07-12T05:31:55;5.22;;;1.67;;
25962;SDS011;13760;52.588;13.406;2022-07-12T05:34:22;2.50;;;0.98;;
25962;SDS011;13760;52.588;13.406;2022-07-12T05:36:53;7.97;;;1.25;;
25962;SDS011;13760;52.588;13.406;2022-07-12T05:39:20;4.35;;;1.17;;
25962;SDS011;13760;52.588;13.406;2022-07-12T05:41:49;6.43;;;1.30;;
25962;SDS011;13760;52.588;13.406;2022-07-12T05:44:15;3.70;;;1.17;;
25962;SDS011;13760;52.588;13.406;2022-07-12T05:46:42;1.95;;;1.10;;
25962;SDS011;13760;52.588;13.406;2022-07-12T05:49:08;4.43;;;1.20;;
25962;SDS011;13760;52.588;13.406;2022-07-12T05:51:34;3.60;;;1.25;;
25962;SDS011;13760;52.588;13.406;2022-07-12T05:54:18;4.65;;;1.02;;
25962;SDS011;13760;52.588;13.406;2022-07-12T05:56:47;2.97;;;1.10;;
25962;SDS011;13760;52.588;13.406;2022-07-12T05:59:45;4.40;;;0.95;;
25962;SDS011;13760;52.588;13.406;2022-07-12T06:02:05;2.30;;;1.10;;
25962;SDS011;13760;52.588;13.406;2022-07-12T06:04:34;4.15;;;1.17;;
25962;SDS011;13760;52.588;13.406;2022-07-12T06:07:03;6.05;;;1.30;;
25962;SDS011;13760;52.588;13.406;2022-07-12T06:09:30;4.00;;;1.10;;
25962;SDS011;13760;52.588;13.406;2022-07-12T06:12:11;6.47;;;1.13;;
25962;SDS011;13760;52.588;13.406;2022-07-12T06:14:37;3.85;;;1.08;;
25962;SDS011;13760;52.588;13.406;2022-07-12T06:17:03;3.22;;;1.20;;
25962;SDS011;13760;52.588;13.406;2022-07-12T06:19:29;4.20;;;1.38;;
25962;SDS011;13760;52.588;13.406;2022-07-12T06:21:58;3.90;;;1.10;;
25962;SDS011;13760;52.588;13.406;2022-07-12T06:24:29;3.40;;;1.23;;
25962;SDS011;13760;52.588;13.406;2022-07-12T06:26:55;3.03;;;1.25;;
25962;SDS011;13760;52.588;13.406;2022-07-12T06:29:23;4.82;;;1.50;;
25962;SDS011;13760;52.588;13.406;2022-07-12T06:31:52;3.22;;;0.80;;
25962;SDS011;13760;52.588;13.406;2022-07-12T06:34:44;5.35;;;1.00;;
25962;SDS011;13760;52.588;13.406;2022-07-12T06:37:30;2.92;;;1.05;;
25962;SDS011;13760;52.588;13.406;2022-07-12T06:39:59;5.60;;;1.02;;
25962;SDS011;13760;52.588;13.406;2022-07-12T06:42:24;2.60;;;0.95;;
25962;SDS011;13760;52.588;13.406;2022-07-12T06:44:58;4.15;;;1.10;;
25962;SDS011;13760;52.588;13.406;2022-07-12T06:47:24;3.60;;;0.95;;
25962;SDS011;13760;52.588;13.406;2022-07-12T06:50:01;5.25;;;1.35;;
25962;SDS011;13760;52.588;13.406;2022-07-12T06:52:30;2.90;;;1.00;;
25962;SDS011;13760;52.588;13.406;2022-07-12T06:54:58;7.05;;;1.40;;
25962;SDS011;13760;52.588;13.406;2022-07-12T07:00:13;3.25;;;1.20;;
25962;SDS011;13760;52.588;13.406;2022-07-12T07:02:39;5.05;;;1.40;;
25962;SDS011;13760;52.588;13.406;2022-07-12T07:05:05;4.22;;;0.95;;
25962;SDS011;13760;52.588;13.406;2022-07-12T07:10:02;4.75;;;1.00;;
25962;SDS011;13760;52.588;13.406;2022-07-12T07:12:28;9.20;;;1.20;;
25962;SDS011;13760;52.588;13.406;2022-07-12T07:14:57;4.75;;;1.08;;
25962;SDS011;13760;52.588;13.406;2022-07-12T07:17:23;8.90;;;1.60;;
25962;SDS011;13760;52.588;13.406;2022-07-12T07:19:54;5.53;;;1.20;;
25962;SDS011;13760;52.588;13.406;2022-07-12T07:22:29;4.78;;;1.00;;
25962;SDS011;13760;52.588;13.406;2022-07-12T07:24:58;3.03;;;0.98;;
25962;SDS011;13760;52.588;13.406;2022-07-12T07:27:33;3.90;;;1.10;;
25962;SDS011;13760;52.588;13.406;2022-07-12T07:30:19;7.30;;;1.30;;
25962;SDS011;13760;52.588;13.406;2022-07-12T07:33:12;2.67;;;1.02;;
25962;SDS011;13760;52.588;13.406;2022-07-12T07:35:38;2.60;;;1.10;;
25962;SDS011;13760;52.588;13.406;2022-07-12T07:38:18;9.27;;;1.52;;
25962;SDS011;13760;52.588;13.406;2022-07-12T07:40:53;4.55;;;0.82;;
25962;SDS011;13760;52.588;13.406;2022-07-12T07:43:23;1.73;;;0.80;;
25962;SDS011;13760;52.588;13.406;2022-07-12T07:45:49;5.72;;;1.10;;
25962;SDS011;13760;52.588;13.406;2022-07-12T07:48:20;5.43;;;1.25;;
25962;SDS011;13760;52.588;13.406;2022-07-12T07:50:54;3.50;;;1.10;;
25962;SDS011;13760;52.588;13.406;2022-07-12T07:53:22;4.03;;;1.00;;
25962;SDS011;13760;52.588;13.406;2022-07-12T07:55:52;2.55;;;1.00;;
25962;SDS011;13760;52.588;13.406;2022-07-12T07:58:19;4.35;;;1.15;;
25962;SDS011;13760;52.588;13.406;2022-07-12T08:00:51;4.47;;;0.90;;
25962;SDS011;13760;52.588;13.406;2022-07-12T08:03:23;5.97;;;1.13;;
25962;SDS011;13760;52.588;13.406;2022-07-12T08:05:52;3.55;;;1.00;;
25962;SDS011;13760;52.588;13.406;2022-07-12T08:08:25;3.05;;;1.10;;
25962;SDS011;13760;52.588;13.406;2022-07-12T08:10:52;5.95;;;0.98;;
25962;SDS011;13760;52.588;13.406;2022-07-12T08:13:26;5.03;;;1.10;;
25962;SDS011;13760;52.588;13.406;2022-07-12T08:15:52;3.38;;;0.90;;
25962;SDS011;13760;52.588;13.406;2022-07-12T08:18:22;5.00;;;1.20;;
25962;SDS011;13760;52.588;13.406;2022-07-12T08:20:51;3.22;;;1.10;;
25962;SDS011;13760;52.588;13.406;2022-07-12T08:23:20;5.32;;;1.10;;
25962;SDS011;13760;52.588;13.406;2022-07-12T08:25:55;8.55;;;1.17;;
25962;SDS011;13760;52.588;13.406;2022-07-12T08:28:21;4.95;;;1.00;;
25962;SDS011;13760;52.588;13.406;2022-07-12T08:33:22;5.05;;;0.60;;
25962;SDS011;13760;52.588;13.406;2022-07-12T08:36:01;3.70;;;0.82;;
25962;SDS011;13760;52.588;13.406;2022-07-12T08:38:37;5.85;;;0.90;;
25962;SDS011;13760;52.588;13.406;2022-07-12T08:41:06;5.25;;;1.13;;
25962;SDS011;13760;52.588;13.406;2022-07-12T08:43:35;2.92;;;0.90;;
25962;SDS011;13760;52.588;13.406;2022-07-12T08:46:07;4.97;;;0.95;;
25962;SDS011;13760;52.588;13.406;2022-07-12T08:48:35;3.88;;;1.00;;
25962;SDS011;13760;52.588;13.406;2022-07-12T08:53:32;3.15;;;1.10;;
25962;SDS011;13760;52.588;13.406;2022-07-12T08:55:58;5.00;;;0.68;;
25962;SDS011;13760;52.588;13.406;2022-07-12T08:58:24;2.63;;;0.95;;
25962;SDS011;13760;52.588;13.406;2022-07-12T09:00:53;3.72;;;0.90;;
25962;SDS011;13760;52.588;13.406;2022-07-12T09:03:19;2.90;;;1.00;;
25962;SDS011;13760;52.588;13.406;2022-07-12T09:08:31;4.35;;;1.13;;
25962;SDS011;13760;52.588;13.406;2022-07-12T09:10:59;3.28;;;1.10;;
25962;SDS011;13760;52.588;13.406;2022-07-12T09:16:16;5.03;;;1.00;;
25962;SDS011;13760;52.588;13.406;2022-07-12T09:18:44;3.22;;;1.00;;
25962;SDS011;13760;52.588;13.406;2022-07-12T09:21:22;3.15;;;0.63;;
25962;SDS011;13760;52.588;13.406;2022-07-12T09:23:53;4.65;;;0.98;;
25962;SDS011;13760;52.588;13.406;2022-07-12T09:26:33;7.10;;;0.90;;
25962;SDS011;13760;52.588;13.406;2022-07-12T09:29:09;3.75;;;0.95;;
25962;SDS011;13760;52.588;13.406;2022-07-12T09:31:47;2.05;;;0.88;;
25962;SDS011;13760;52.588;13.406;2022-07-12T09:34:33;6.10;;;0.80;;
25962;SDS011;13760;52.588;13.406;2022-07-12T09:37:18;5.05;;;0.95;;
25962;SDS011;13760;52.588;13.406;2022-07-12T09:39:55;3.97;;;0.88;;
25962;SDS011;13760;52.588;13.406;2022-07-12T09:42:28;2.45;;;0.70;;
25962;SDS011;13760;52.588;13.406;2022-07-12T09:44:55;2.97;;;0.77;;
25962;SDS011;13760;52.588;13.406;2022-07-12T09:47:27;3.42;;;0.73;;
25962;SDS011;13760;52.588;13.406;2022-07-12T09:50:04;2.70;;;0.60;;
25962;SDS011;13760;52.588;13.406;2022-07-12T09:52:40;2.55;;;0.60;;
25962;SDS011;13760;52.588;13.406;2022-07-12T09:55:13;3.53;;;0.73;;
25962;SDS011;13760;52.588;13.406;2022-07-12T09:57:49;1.75;;;0.75;;
25962;SDS011;13760;52.588;13.406;2022-07-12T10:00:21;1.50;;;0.82;;
25962;SDS011;13760;52.588;13.406;2022-07-12T10:02:47;1.77;;;0.70;;
25962;SDS011;13760;52.588;13.406;2022-07-12T10:05:23;2.00;;;0.85;;
25962;SDS011;13760;52.588;13.406;2022-07-12T10:07:53;1.58;;;0.70;;
25962;SDS011;13760;52.588;13.406;2022-07-12T10:10:22;1.40;;;0.73;;
25962;SDS011;13760;52.588;13.406;2022-07-12T10:12:49;2.03;;;0.85;;
25962;SDS011;13760;52.588;13.406;2022-07-12T10:15:22;3.75;;;0.80;;
25962;SDS011;13760;52.588;13.406;2022-07-12T10:17:55;1.95;;;0.60;;
25962;SDS011;13760;52.588;13.406;2022-07-12T10:20:35;3.40;;;1.00;;
25962;SDS011;13760;52.588;13.406;2022-07-12T10:25:51;3.13;;;0.85;;
25962;SDS011;13760;52.588;13.406;2022-07-12T10:28:24;2.78;;;0.50;;
25962;SDS011;13760;52.588;13.406;2022-07-12T10:31:25;2.45;;;0.77;;
25962;SDS011;13760;52.588;13.406;2022-07-12T10:34:20;2.50;;;0.80;;
25962;SDS011;13760;52.588;13.406;2022-07-12T10:39:38;1.27;;;0.70;;
25962;SDS011;13760;52.588;13.406;2022-07-12T10:42:26;2.72;;;0.70;;
25962;SDS011;13760;52.588;13.406;2022-07-12T10:44:52;3.05;;;0.70;;
25962;SDS011;13760;52.588;13.406;2022-07-12T10:48:00;1.92;;;0.63;;
25962;SDS011;13760;52.588;13.406;2022-07-12T11:01:19;2.55;;;0.88;;
25962;SDS011;13760;52.588;13.406;2022-07-12T11:04:08;3.25;;;0.70;;
25962;SDS011;13760;52.588;13.406;2022-07-12T11:09:16;3.50;;;0.93;;
25962;SDS011;13760;52.588;13.406;2022-07-12T11:11:48;4.03;;;1.10;;
25962;SDS011;13760;52.588;13.406;2022-07-12T11:14:24;4.40;;;1.23;;
25962;SDS011;13760;52.588;13.406;2022-07-12T11:16:52;1.52;;;0.70;;
25962;SDS011;13760;52.588;13.406;2022-07-12T11:19:23;2.03;;;0.95;;
25962;SDS011;13760;52.588;13.406;2022-07-12T11:21:54;2.00;;;0.90;;
25962;SDS011;13760;52.588;13.406;2022-07-12T11:24:43;1.42;;;0.85;;
25962;SDS011;13760;52.588;13.406;2022-07-12T11:27:12;2.97;;;1.20;;
25962;SDS011;13760;52.588;13.406;2022-07-12T11:29:55;2.22;;;0.95;;
25962;SDS011;13760;52.588;13.406;2022-07-12T11:32:35;5.68;;;0.88;;
25962;SDS011;13760;52.588;13.406;2022-07-12T11:37:54;4.47;;;0.90;;
25962;SDS011;13760;52.588;13.406;2022-07-12T11:40:27;1.33;;;0.70;;
25962;SDS011;13760;52.588;13.406;2022-07-12T11:43:00;1.65;;;1.00;;
25962;SDS011;13760;52.588;13.406;2022-07-12T11:45:33;0.98;;;0.65;;
25962;SDS011;13760;52.588;13.406;2022-07-12T11:48:02;4.38;;;0.90;;
25962;SDS011;13760;52.588;13.406;2022-07-12T11:50:52;4.95;;;1.00;;
25962;SDS011;13760;52.588;13.406;2022-07-12T11:53:25;4.85;;;0.95;;
25962;SDS011;13760;52.588;13.406;2022-07-12T11:55:58;2.22;;;0.70;;
25962;SDS011;13760;52.588;13.406;2022-07-12T11:58:28;1.80;;;0.90;;
25962;SDS011;13760;52.588;13.406;2022-07-12T12:00:59;4.30;;;0.90;;
25962;SDS011;13760;52.588;13.406;2022-07-12T12:03:28;5.65;;;0.90;;
25962;SDS011;13760;52.588;13.406;2022-07-12T12:05:56;3.63;;;0.85;;
25962;SDS011;13760;52.588;13.406;2022-07-12T12:08:23;2.75;;;0.88;;
25962;SDS011;13760;52.588;13.406;2022-07-12T12:10:56;2.05;;;0.80;;
25962;SDS011;13760;52.588;13.406;2022-07-12T12:16:26;4.90;;;0.63;;
25962;SDS011;13760;52.588;13.406;2022-07-12T12:19:20;2.53;;;0.80;;
25962;SDS011;13760;52.588;13.406;2022-07-12T12:21:46;4.50;;;0.88;;
25962;SDS011;13760;52.588;13.406;2022-07-12T12:24:14;3.47;;;1.10;;
25962;SDS011;13760;52.588;13.406;2022-07-12T12:26:45;5.35;;;0.93;;
25962;SDS011;13760;52.588;13.406;2022-07-12T12:29:11;2.65;;;0.77;;
25962;SDS011;13760;52.588;13.406;2022-07-12T12:31:37;6.25;;;1.42;;
25962;SDS011;13760;52.588;13.406;2022-07-12T12:34:09;1.60;;;0.85;;
25962;SDS011;13760;52.588;13.406;2022-07-12T12:36:37;1.58;;;0.68;;
25962;SDS011;13760;52.588;13.406;2022-07-12T12:39:06;2.58;;;0.80;;
25962;SDS011;13760;52.588;13.406;2022-07-12T12:41:40;1.80;;;0.93;;
25962;SDS011;13760;52.588;13.406;2022-07-12T12:44:11;2.80;;;1.02;;
25962;SDS011;13760;52.588;13.406;2022-07-12T12:49:58;3.00;;;1.00;;
25962;SDS011;13760;52.588;13.406;2022-07-12T12:52:47;1.23;;;0.90;;
25962;SDS011;13760;52.588;13.406;2022-07-12T12:55:16;1.83;;;0.77;;
25962;SDS011;13760;52.588;13.406;2022-07-12T12:57:42;1.55;;;0.80;;
25962;SDS011;13760;52.588;13.406;2022-07-12T13:00:13;3.83;;;0.80;;
25962;SDS011;13760;52.588;13.406;2022-07-12T13:02:42;1.48;;;0.70;;
25962;SDS011;13760;52.588;13.406;2022-07-12T13:05:29;4.68;;;0.70;;
25962;SDS011;13760;52.588;13.406;2022-07-12T13:07:55;5.07;;;0.95;;
25962;SDS011;13760;52.588;13.406;2022-07-12T13:10:24;4.70;;;0.77;;
25962;SDS011;13760;52.588;13.406;2022-07-12T13:12:51;1.85;;;0.65;;
25962;SDS011;13760;52.588;13.406;2022-07-12T13:15:17;5.00;;;0.70;;
25962;SDS011;13760;52.588;13.406;2022-07-12T13:17:47;3.15;;;0.60;;
25962;SDS011;13760;52.588;13.406;2022-07-12T13:20:18;0.63;;;0.40;;
25962;SDS011;13760;52.588;13.406;2022-07-12T13:22:44;1.33;;;0.70;;
25962;SDS011;13760;52.588;13.406;2022-07-12T13:25:11;2.05;;;0.50;;
25962;SDS011;13760;52.588;13.406;2022-07-12T13:27:41;5.43;;;0.70;;
25962;SDS011;13760;52.588;13.406;2022-07-12T13:30:08;3.88;;;0.80;;
25962;SDS011;13760;52.588;13.406;2022-07-12T13:32:48;6.05;;;0.85;;
25962;SDS011;13760;52.588;13.406;2022-07-12T13:35:16;1.30;;;0.70;;
25962;SDS011;13760;52.588;13.406;2022-07-12T13:37:42;2.38;;;0.73;;
25962;SDS011;13760;52.588;13.406;2022-07-12T13:40:09;1.92;;;0.63;;
25962;SDS011;13760;52.588;13.406;2022-07-12T13:42:45;2.13;;;0.90;;
25962;SDS011;13760;52.588;13.406;2022-07-12T13:45:19;1.50;;;0.70;;
25962;SDS011;13760;52.588;13.406;2022-07-12T13:47:50;4.25;;;1.00;;
25962;SDS011;13760;52.588;13.406;2022-07-12T13:50:18;2.50;;;0.63;;
25962;SDS011;13760;52.588;13.406;2022-07-12T13:52:45;2.08;;;0.70;;
25962;SDS011;13760;52.588;13.406;2022-07-12T13:55:13;3.78;;;0.90;;
25962;SDS011;13760;52.588;13.406;2022-07-12T13:57:41;1.92;;;0.70;;
25962;SDS011;13760;52.588;13.406;2022-07-12T14:00:10;2.70;;;0.80;;
25962;SDS011;13760;52.588;13.406;2022-07-12T14:02:40;2.88;;;0.70;;
25962;SDS011;13760;52.588;13.406;2022-07-12T14:05:11;1.47;;;0.70;;
25962;SDS011;13760;52.588;13.406;2022-07-12T14:07:38;2.20;;;0.50;;
25962;SDS011;13760;52.588;13.406;2022-07-12T14:10:05;3.20;;;0.88;;
25962;SDS011;13760;52.588;13.406;2022-07-12T14:12:32;5.32;;;0.80;;
25962;SDS011;13760;52.588;13.406;2022-07-12T14:15:06;2.03;;;0.80;;
25962;SDS011;13760;52.588;13.406;2022-07-12T14:20:05;2.28;;;0.57;;
25962;SDS011;13760;52.588;13.406;2022-07-12T14:22:35;2.70;;;0.68;;
25962;SDS011;13760;52.588;13.406;2022-07-12T14:25:02;1.17;;;0.60;;
25962;SDS011;13760;52.588;13.406;2022-07-12T14:27:30;3.30;;;0.60;;
25962;SDS011;13760;52.588;13.406;2022-07-12T14:32:28;2.05;;;0.50;;
25962;SDS011;13760;52.588;13.406;2022-07-12T14:34:54;4.18;;;0.77;;
25962;SDS011;13760;52.588;13.406;2022-07-12T14:37:22;2.38;;;0.70;;
25962;SDS011;13760;52.588;13.406;2022-07-12T14:39:51;2.45;;;0.80;;
25962;SDS011;13760;52.588;13.406;2022-07-12T14:42:17;2.28;;;0.98;;
25962;SDS011;13760;52.588;13.406;2022-07-12T14:44:45;5.72;;;0.88;;
25962;SDS011;13760;52.588;13.406;2022-07-12T14:47:18;2.63;;;0.80;;
25962;SDS011;13760;52.588;13.406;2022-07-12T14:49:55;1.73;;;0.60;;
25962;SDS011;13760;52.588;13.406;2022-07-12T14:52:44;3.97;;;0.70;;
25962;SDS011;13760;52.588;13.406;2022-07-12T14:55:10;2.33;;;0.55;;
25962;SDS011;13760;52.588;13.406;2022-07-12T14:57:39;5.00;;;0.70;;
25962;SDS011;13760;52.588;13.406;2022-07-12T15:00:08;5.97;;;0.82;;
25962;SDS011;13760;52.588;13.406;2022-07-12T15:02:39;4.28;;;0.68;;
25962;SDS011;13760;52.588;13.406;2022-07-12T15:05:05;1.38;;;0.70;;
25962;SDS011;13760;52.588;13.406;2022-07-12T15:07:32;2.70;;;0.70;;
25962;SDS011;13760;52.588;13.406;2022-07-12T15:09:58;1.08;;;0.65;;
25962;SDS011;13760;52.588;13.406;2022-07-12T15:12:24;1.00;;;0.70;;
25962;SDS011;13760;52.588;13.406;2022-07-12T15:14:51;2.97;;;0.70;;
25962;SDS011;13760;52.588;13.406;2022-07-12T15:17:16;1.92;;;0.80;;
25962;SDS011;13760;52.588;13.406;2022-07-12T15:19:44;5.15;;;0.80;;
25962;SDS011;13760;52.588;13.406;2022-07-12T15:22:10;0.95;;;0.70;;
25962;SDS011;13760;52.588;13.406;2022-07-12T15:24:47;2.65;;;0.80;;
25962;SDS011;13760;52.588;13.406;2022-07-12T15:27:13;2.63;;;0.63;;
25962;SDS011;13760;52.588;13.406;2022-07-12T15:29:39;1.77;;;0.73;;
25962;SDS011;13760;52.588;13.406;2022-07-12T15:32:08;0.90;;;0.50;;
25962;SDS011;13760;52.588;13.406;2022-07-12T15:34:34;2.88;;;0.80;;
25962;SDS011;13760;52.588;13.406;2022-07-12T15:37:05;2.40;;;0.80;;